Time;durP1;ratioP1;P1;durP2;ratioP2;P2;SDS_P1;SDS_P2;PMS_P1;PMS_P2;Temp;Humidity;BMP_temperature;BMP_pressure;BME280_temperature;BME280_humidity;BME280_pressure;Samples;Min_cycle;Max_cycle;Signal;HPM_P1;HPM_P2
2021/12/27 00:01:58;;;;;;;16.52;9.98;;;0.90;83.80;;;;;;5126453;27;37090;-58
2021/12/27 00:04:25;;;;;;;17.27;9.07;;;0.90;83.80;;;;;;5126963;27;37388;-59
2021/12/27 00:06:52;;;;;;;17.02;8.90;;;0.90;83.90;;;;;;5126745;27;37639;-59
2021/12/27 00:09:20;;;;;;;16.77;9.82;;;0.90;83.90;;;;;;5126501;27;40329;-59
2021/12/27 00:11:47;;;;;;;16.70;9.30;;;0.90;84.10;;;;;;5125849;27;38797;-59
2021/12/27 00:14:14;;;;;;;17.35;9.07;;;0.90;84.00;;;;;;5126947;27;36465;-60
2021/12/27 00:16:43;;;;;;;18.42;9.10;;;0.90;84.10;;;;;;5124439;27;38744;-59
2021/12/27 00:19:10;;;;;;;17.17;10.18;;;0.90;84.00;;;;;;5126610;27;37850;-59
2021/12/27 00:21:38;;;;;;;17.40;9.23;;;1.00;84.20;;;;;;5126012;27;37552;-59
2021/12/27 00:24:06;;;;;;;17.40;9.68;;;0.90;84.40;;;;;;5126212;27;35500;-59
2021/12/27 00:26:34;;;;;;;17.83;10.32;;;0.90;84.50;;;;;;5126847;27;36252;-59
2021/12/27 00:29:01;;;;;;;16.77;9.43;;;0.90;84.40;;;;;;5126665;27;38707;-59
2021/12/27 00:31:28;;;;;;;16.70;9.50;;;0.90;84.50;;;;;;5126475;27;37385;-59
2021/12/27 00:33:57;;;;;;;20.52;10.50;;;0.90;84.50;;;;;;5127218;27;35056;-59
2021/12/27 00:36:24;;;;;;;18.95;10.55;;;0.90;84.50;;;;;;5127105;27;36263;-59
2021/12/27 00:38:52;;;;;;;19.30;9.77;;;0.90;84.70;;;;;;5126633;27;37695;-59
2021/12/27 00:41:19;;;;;;;15.20;8.75;;;0.80;84.70;;;;;;5126602;27;37296;-59
2021/12/27 00:43:46;;;;;;;17.63;10.52;;;0.80;85.00;;;;;;5126341;27;37172;-59
2021/12/27 00:46:14;;;;;;;17.25;10.02;;;0.80;85.00;;;;;;5125375;27;38154;-59
2021/12/27 00:48:41;;;;;;;17.45;9.95;;;0.80;85.10;;;;;;5126749;27;38460;-59
2021/12/27 00:51:10;;;;;;;19.60;10.35;;;0.80;85.10;;;;;;5126677;27;37408;-59
2021/12/27 00:53:37;;;;;;;18.02;9.55;;;0.80;85.20;;;;;;5125827;27;36464;-59
2021/12/27 00:56:05;;;;;;;17.45;9.20;;;0.80;85.30;;;;;;5125280;27;37426;-59
2021/12/27 00:58:33;;;;;;;16.63;10.18;;;0.80;85.20;;;;;;5126240;27;38277;-59
2021/12/27 01:01:00;;;;;;;17.52;10.18;;;0.70;85.40;;;;;;5126560;27;36328;-58
2021/12/27 01:03:28;;;;;;;18.85;9.25;;;0.60;85.20;;;;;;5125963;27;36805;-58
2021/12/27 01:05:55;;;;;;;16.27;9.57;;;0.60;85.30;;;;;;5125543;27;39377;-58
2021/12/27 01:08:24;;;;;;;17.63;10.50;;;0.60;85.50;;;;;;5126425;27;37266;-58
2021/12/27 01:11:10;;;;;;;15.20;9.00;;;0.60;85.60;;;;;;5127015;27;36401;-58
2021/12/27 01:13:41;;;;;;;17.10;9.93;;;0.60;85.70;;;;;;5129080;27;36717;-59
2021/12/27 01:16:13;;;;;;;18.00;9.15;;;0.60;85.80;;;;;;5129334;27;37735;-58
2021/12/27 01:18:44;;;;;;;17.60;9.73;;;0.50;85.70;;;;;;5129205;27;37894;-58
2021/12/27 01:21:12;;;;;;;15.18;8.50;;;0.50;85.70;;;;;;5129124;27;36040;-58
2021/12/27 01:23:42;;;;;;;17.52;9.77;;;0.50;85.60;;;;;;5128673;27;36712;-58
2021/12/27 01:26:09;;;;;;;17.65;9.63;;;0.50;85.60;;;;;;5129074;27;36162;-59
2021/12/27 01:28:37;;;;;;;18.35;9.85;;;0.50;85.60;;;;;;5129003;27;38680;-58
2021/12/27 01:31:05;;;;;;;17.05;9.18;;;0.50;85.70;;;;;;5128288;27;37530;-58
2021/12/27 01:33:32;;;;;;;16.45;10.20;;;0.50;85.60;;;;;;5129045;27;36237;-59
2021/12/27 01:36:00;;;;;;;17.13;10.05;;;0.60;85.80;;;;;;5128834;27;38935;-58
2021/12/27 01:38:28;;;;;;;16.80;9.13;;;0.60;85.90;;;;;;5128558;27;38521;-58
2021/12/27 01:40:58;;;;;;;16.17;8.98;;;0.50;85.90;;;;;;5129384;27;38000;-58
2021/12/27 01:43:27;;;;;;;22.73;10.93;;;0.50;86.00;;;;;;5128942;27;35223;-58
2021/12/27 01:45:56;;;;;;;18.33;9.48;;;0.50;86.00;;;;;;5129282;27;36542;-59
2021/12/27 01:48:29;;;;;;;21.67;10.68;;;0.60;86.10;;;;;;5129010;27;37920;-59
2021/12/27 01:50:58;;;;;;;17.45;9.68;;;0.60;86.10;;;;;;5127460;27;37416;-58
2021/12/27 01:53:27;;;;;;;18.67;10.57;;;0.60;86.20;;;;;;5128054;27;36688;-58
2021/12/27 01:55:57;;;;;;;15.35;9.50;;;0.90;86.30;;;;;;5128570;27;38038;-59
2021/12/27 01:58:25;;;;;;;18.02;9.82;;;0.60;86.40;;;;;;5128707;27;37859;-58
2021/12/27 02:00:54;;;;;;;18.77;10.65;;;0.60;86.10;;;;;;5127802;27;37452;-58
2021/12/27 02:03:25;;;;;;;15.98;9.02;;;1.10;86.50;;;;;;5129124;27;36692;-59
2021/12/27 02:05:52;;;;;;;21.77;10.60;;;0.60;86.30;;;;;;5127855;27;37657;-59
2021/12/27 02:08:20;;;;;;;16.98;10.40;;;0.60;86.30;;;;;;5128474;27;36445;-58
2021/12/27 02:10:49;;;;;;;16.45;9.82;;;0.60;86.80;;;;;;5128466;27;36104;-58
2021/12/27 02:13:18;;;;;;;16.80;9.70;;;0.60;86.30;;;;;;5128627;27;38209;-59
2021/12/27 02:15:46;;;;;;;18.80;9.82;;;0.60;86.50;;;;;;5129359;27;37970;-58
2021/12/27 02:18:14;;;;;;;20.40;10.40;;;0.60;86.50;;;;;;5128860;27;36479;-58
2021/12/27 02:20:43;;;;;;;17.67;10.57;;;0.60;86.60;;;;;;5127689;27;37363;-59
2021/12/27 02:23:15;;;;;;;17.30;10.27;;;0.60;86.80;;;;;;5127162;27;37582;-59
2021/12/27 02:25:45;;;;;;;15.70;9.00;;;0.70;86.80;;;;;;5128744;27;37476;-58
2021/12/27 02:28:13;;;;;;;17.55;10.07;;;0.70;86.80;;;;;;5127305;27;37844;-58
2021/12/27 02:30:43;;;;;;;18.85;10.45;;;0.60;86.80;;;;;;5127795;27;37437;-58
2021/12/27 02:33:11;;;;;;;19.85;10.88;;;0.70;86.80;;;;;;5128542;27;35536;-58
2021/12/27 02:35:43;;;;;;;17.98;10.27;;;0.70;86.70;;;;;;5129112;27;36364;-58
2021/12/27 02:38:12;;;;;;;18.17;10.63;;;0.70;86.80;;;;;;5129748;27;36360;-58
2021/12/27 02:40:40;;;;;;;16.20;9.50;;;0.80;87.00;;;;;;5128596;27;37398;-58
2021/12/27 02:43:10;;;;;;;20.70;11.02;;;0.80;86.90;;;;;;5128874;27;36618;-59
2021/12/27 02:45:40;;;;;;;18.00;9.48;;;0.80;87.00;;;;;;5128961;27;37628;-58
2021/12/27 02:48:07;;;;;;;18.42;10.82;;;0.80;86.90;;;;;;5129553;27;36325;-58
2021/12/27 02:50:36;;;;;;;19.55;10.40;;;0.80;87.00;;;;;;5129489;27;37662;-58
2021/12/27 02:53:06;;;;;;;19.00;10.10;;;0.80;87.00;;;;;;5128625;27;36976;-58
2021/12/27 02:55:34;;;;;;;20.85;10.93;;;0.80;87.20;;;;;;5128828;27;37078;-58
2021/12/27 02:58:02;;;;;;;16.58;10.10;;;0.80;87.20;;;;;;5129028;27;37909;-58
2021/12/27 03:00:32;;;;;;;19.10;10.65;;;0.80;87.10;;;;;;5129105;27;36223;-58
2021/12/27 03:03:00;;;;;;;17.63;10.90;;;0.80;87.00;;;;;;5128854;27;36903;-58
2021/12/27 03:05:29;;;;;;;18.98;10.57;;;0.80;87.20;;;;;;5129307;27;39049;-58
2021/12/27 03:07:58;;;;;;;20.20;11.40;;;0.80;87.20;;;;;;5129188;27;38206;-58
2021/12/27 03:10:30;;;;;;;19.42;11.23;;;0.90;87.30;;;;;;5128279;27;38204;-58
2021/12/27 03:13:00;;;;;;;18.80;11.27;;;0.90;87.50;;;;;;5128714;27;35349;-58
2021/12/27 03:15:27;;;;;;;21.35;11.88;;;0.90;87.60;;;;;;5128458;27;37315;-58
2021/12/27 03:17:55;;;;;;;20.13;11.07;;;0.90;87.60;;;;;;5127882;27;36729;-59
2021/12/27 03:20:26;;;;;;;18.20;10.68;;;0.90;87.70;;;;;;5128210;27;39781;-59
2021/12/27 03:22:53;;;;;;;22.48;12.32;;;0.90;87.90;;;;;;5126992;27;37269;-58
2021/12/27 03:25:27;;;;;;;21.25;10.93;;;0.90;87.80;;;;;;5127878;27;37402;-58
2021/12/27 03:27:54;;;;;;;18.80;11.05;;;0.90;87.80;;;;;;5128224;27;38849;-58
2021/12/27 03:30:23;;;;;;;18.85;11.25;;;0.90;87.90;;;;;;5126867;27;38771;-58
2021/12/27 03:32:52;;;;;;;19.85;11.35;;;0.90;87.90;;;;;;5127328;27;36894;-58
2021/12/27 03:35:26;;;;;;;19.58;11.30;;;0.90;88.00;;;;;;5127990;27;37862;-58
2021/12/27 03:37:54;;;;;;;;;;;0.90;88.00;;;;;;5129510;27;39590;-58
2021/12/27 03:40:23;;;;;;;18.10;11.18;;;0.90;89.10;;;;;;5128523;27;36901;-59
2021/12/27 03:42:52;;;;;;;20.58;11.75;;;1.00;88.30;;;;;;5128491;27;37503;-58
2021/12/27 03:45:23;;;;;;;22.02;11.45;;;0.90;88.20;;;;;;5128716;27;40603;-58
2021/12/27 03:47:51;;;;;;;20.83;12.07;;;0.90;88.40;;;;;;5128398;27;36530;-58
2021/12/27 03:50:19;;;;;;;20.58;11.23;;;0.90;88.50;;;;;;5128175;27;39133;-58
2021/12/27 03:52:46;;;;;;;17.52;11.35;;;0.90;88.50;;;;;;5128605;27;37215;-58
2021/12/27 03:55:15;;;;;;;20.50;11.57;;;0.90;88.40;;;;;;5128049;27;20055;-58
2021/12/27 03:57:51;;;;;;;20.48;11.50;;;1.00;88.50;;;;;;5127722;27;37562;-58
2021/12/27 04:00:32;;;;;;;19.88;11.45;;;1.00;88.60;;;;;;5127648;27;39079;-59
2021/12/27 04:03:02;;;;;;;22.02;12.05;;;1.00;88.60;;;;;;5128289;27;36773;-58
2021/12/27 04:05:30;;;;;;;21.48;11.60;;;1.00;88.80;;;;;;5127836;27;40152;-59
2021/12/27 04:08:02;;;;;;;17.92;10.93;;;1.00;88.70;;;;;;5128264;27;36081;-58
2021/12/27 04:10:31;;;;;;;20.90;12.00;;;1.00;88.70;;;;;;5127760;27;37214;-58
2021/12/27 04:12:58;;;;;;;20.02;11.98;;;1.00;89.00;;;;;;5128648;27;36700;-59
2021/12/27 04:15:27;;;;;;;22.73;12.70;;;1.00;88.80;;;;;;5127301;27;37044;-58
2021/12/27 04:17:54;;;;;;;22.75;12.77;;;1.00;88.90;;;;;;5128050;27;36592;-58
2021/12/27 04:20:22;;;;;;;21.23;11.15;;;1.00;89.10;;;;;;5126752;27;37305;-58
2021/12/27 04:22:51;;;;;;;19.98;11.38;;;1.00;89.20;;;;;;5128189;27;36941;-58
2021/12/27 04:25:20;;;;;;;23.40;12.82;;;1.00;89.20;;;;;;5127572;27;37697;-58
2021/12/27 04:27:48;;;;;;;21.10;12.00;;;1.00;89.40;;;;;;5127127;27;38436;-59
2021/12/27 04:30:17;;;;;;;20.75;11.98;;;1.00;89.60;;;;;;5127345;27;38268;-58
2021/12/27 04:32:46;;;;;;;20.00;11.73;;;1.10;89.90;;;;;;5128152;27;37952;-59
2021/12/27 04:35:14;;;;;;;19.10;11.70;;;1.10;90.00;;;;;;5127520;27;39068;-59
2021/12/27 04:37:42;;;;;;;24.92;11.95;;;1.10;90.10;;;;;;5127511;27;38856;-58
2021/12/27 04:40:12;;;;;;;22.15;11.57;;;1.10;90.30;;;;;;5127343;27;38200;-59
2021/12/27 04:42:42;;;;;;;21.35;12.65;;;1.10;90.40;;;;;;5125938;27;35373;-58
2021/12/27 04:45:11;;;;;;;20.67;12.52;;;1.10;90.40;;;;;;5128697;27;37632;-59
2021/12/27 04:47:39;;;;;;;23.13;13.68;;;1.10;90.40;;;;;;5131514;27;38817;-58
2021/12/27 04:50:08;;;;;;;22.05;11.98;;;1.10;90.30;;;;;;5131154;27;38144;-58
2021/12/27 04:52:36;;;;;;;23.08;12.80;;;1.10;90.40;;;;;;5130910;27;36704;-59
2021/12/27 04:55:03;;;;;;;21.55;12.50;;;1.10;90.60;;;;;;5129565;27;37852;-58
2021/12/27 04:57:31;;;;;;;22.00;12.85;;;1.10;90.50;;;;;;5130513;27;37598;-58
2021/12/27 04:59:58;;;;;;;22.48;12.60;;;1.20;90.60;;;;;;5130295;27;37404;-58
2021/12/27 05:02:26;;;;;;;21.42;12.60;;;1.20;90.60;;;;;;5130562;27;36900;-58
2021/12/27 05:04:54;;;;;;;21.27;12.95;;;1.20;90.50;;;;;;5131148;27;37436;-59
2021/12/27 05:07:22;;;;;;;19.60;12.32;;;1.20;90.60;;;;;;5130427;27;36447;-58
2021/12/27 05:09:50;;;;;;;21.38;12.50;;;1.20;90.50;;;;;;5130750;27;36171;-58
2021/12/27 05:12:17;;;;;;;19.00;11.60;;;1.20;90.50;;;;;;5131000;27;38707;-58
2021/12/27 05:14:44;;;;;;;22.38;13.20;;;1.20;90.60;;;;;;5130639;27;38357;-59
2021/12/27 05:17:12;;;;;;;22.90;12.77;;;1.20;90.60;;;;;;5130380;27;36175;-59
2021/12/27 05:19:39;;;;;;;20.75;12.23;;;1.20;90.60;;;;;;5130339;27;37244;-58
2021/12/27 05:22:06;;;;;;;19.17;12.05;;;1.20;90.60;;;;;;5129764;27;37454;-58
2021/12/27 05:24:35;;;;;;;21.92;12.10;;;1.30;90.50;;;;;;5130619;27;39062;-59
2021/12/27 05:27:02;;;;;;;21.10;13.35;;;1.30;90.60;;;;;;5130438;27;37678;-58
2021/12/27 05:29:30;;;;;;;23.95;13.93;;;1.30;90.60;;;;;;5130170;27;37207;-58
2021/12/27 05:32:01;;;;;;;22.15;12.65;;;1.30;90.60;;;;;;5129532;27;36792;-58
2021/12/27 05:34:29;;;;;;;21.48;12.10;;;1.30;90.70;;;;;;5129801;27;38107;-58
2021/12/27 05:36:56;;;;;;;21.20;13.15;;;1.30;90.70;;;;;;5130640;27;40270;-58
2021/12/27 05:39:25;;;;;;;22.00;12.90;;;1.30;90.70;;;;;;5129949;27;38070;-58
2021/12/27 05:41:54;;;;;;;20.35;12.30;;;1.30;90.80;;;;;;5129686;27;37462;-58
2021/12/27 05:44:21;;;;;;;23.83;13.45;;;1.30;91.00;;;;;;5130617;27;38552;-58
2021/12/27 05:46:48;;;;;;;22.92;13.10;;;1.30;91.20;;;;;;5130581;27;37627;-58
2021/12/27 05:49:16;;;;;;;22.30;13.60;;;1.30;91.30;;;;;;5130336;27;37148;-58
2021/12/27 05:51:44;;;;;;;29.25;14.27;;;1.30;91.50;;;;;;5130466;27;36542;-58
2021/12/27 05:54:12;;;;;;;23.40;13.38;;;1.30;91.50;;;;;;5130458;27;38776;-58
2021/12/27 05:56:40;;;;;;;24.65;13.50;;;1.30;91.60;;;;;;5128053;27;37957;-58
2021/12/27 05:59:08;;;;;;;23.48;13.70;;;1.30;91.70;;;;;;5130232;27;37260;-58
2021/12/27 06:01:36;;;;;;;23.35;14.38;;;1.30;92.00;;;;;;5128802;27;35371;-58
2021/12/27 06:04:03;;;;;;;24.70;13.57;;;1.30;92.00;;;;;;5129241;27;37517;-58
2021/12/27 06:06:31;;;;;;;22.25;13.25;;;1.30;92.30;;;;;;5130107;27;38233;-58
2021/12/27 06:08:58;;;;;;;25.05;14.55;;;1.30;92.20;;;;;;5129967;27;36314;-58
2021/12/27 06:11:26;;;;;;;27.95;15.55;;;1.30;92.40;;;;;;5128239;27;36571;-58
2021/12/27 06:13:53;;;;;;;27.25;15.18;;;1.30;92.70;;;;;;5130140;27;38976;-58
2021/12/27 06:16:22;;;;;;;25.75;14.75;;;1.30;92.70;;;;;;5129773;27;36407;-58
2021/12/27 06:18:49;;;;;;;25.83;14.18;;;1.20;92.70;;;;;;5128647;27;36015;-58
2021/12/27 06:21:17;;;;;;;29.20;14.82;;;1.30;92.70;;;;;;5128948;27;37750;-58
2021/12/27 06:23:46;;;;;;;27.30;14.30;;;1.20;92.70;;;;;;5128570;27;38335;-58
2021/12/27 06:26:13;;;;;;;30.55;15.45;;;1.30;92.90;;;;;;5129189;27;37685;-58
2021/12/27 06:28:41;;;;;;;31.13;14.50;;;1.30;92.90;;;;;;5129746;27;38648;-58
2021/12/27 06:31:08;;;;;;;28.45;14.73;;;1.30;93.00;;;;;;5128035;27;36525;-58
2021/12/27 06:33:37;;;;;;;29.83;15.85;;;1.30;93.00;;;;;;5128554;27;38048;-58
2021/12/27 06:36:04;;;;;;;25.25;15.23;;;1.30;93.10;;;;;;5129100;27;38198;-58
2021/12/27 06:38:32;;;;;;;28.48;16.08;;;1.30;93.10;;;;;;5128444;27;37466;-58
2021/12/27 06:41:00;;;;;;;31.50;15.65;;;1.40;93.10;;;;;;5129182;27;38140;-58
2021/12/27 06:43:30;;;;;;;27.40;14.25;;;1.30;93.20;;;;;;5129269;27;38227;-58
2021/12/27 06:45:57;;;;;;;29.15;14.88;;;1.80;93.20;;;;;;5129349;27;38049;-58
2021/12/27 06:48:25;;;;;;;26.98;15.27;;;1.30;93.10;;;;;;5129112;27;37471;-59
2021/12/27 06:50:54;;;;;;;24.15;14.73;;;1.40;93.20;;;;;;5127952;27;36876;-58
2021/12/27 06:53:21;;;;;;;26.85;14.00;;;1.30;93.10;;;;;;5127974;27;36367;-58
2021/12/27 06:55:49;;;;;;;25.98;14.43;;;1.40;93.20;;;;;;5128274;27;38069;-59
2021/12/27 06:58:17;;;;;;;29.65;15.23;;;1.40;93.20;;;;;;5127968;27;37951;-59
2021/12/27 07:00:44;;;;;;;27.95;14.50;;;1.40;93.40;;;;;;5128359;27;36584;-59
2021/12/27 07:03:14;;;;;;;25.88;14.70;;;2.00;93.40;;;;;;5128130;27;37395;-59
2021/12/27 07:05:42;;;;;;;27.20;14.40;;;1.30;93.20;;;;;;5128996;27;37958;-59
2021/12/27 07:08:11;;;;;;;27.60;15.68;;;1.30;93.40;;;;;;5127199;27;36106;-59
2021/12/27 07:10:38;;;;;;;26.98;15.52;;;1.40;93.20;;;;;;5128764;27;36540;-59
2021/12/27 07:13:06;;;;;;;25.88;14.40;;;1.40;93.30;;;;;;5128283;27;35988;-59
2021/12/27 07:15:34;;;;;;;25.88;14.80;;;1.40;93.30;;;;;;5128818;27;37883;-59
2021/12/27 07:18:01;;;;;;;21.65;13.95;;;1.40;93.40;;;;;;5128796;27;39868;-59
2021/12/27 07:20:28;;;;;;;24.00;13.75;;;1.40;93.30;;;;;;5127818;27;37206;-59
2021/12/27 07:22:56;;;;;;;26.42;14.65;;;1.40;93.30;;;;;;5127585;27;37577;-58
2021/12/27 07:25:25;;;;;;;27.08;14.82;;;1.40;93.40;;;;;;5128613;27;37755;-59
2021/12/27 07:27:52;;;;;;;29.70;14.73;;;1.40;93.30;;;;;;5128474;27;37908;-59
2021/12/27 07:30:19;;;;;;;24.85;14.57;;;1.40;93.30;;;;;;5127203;27;38256;-59
2021/12/27 07:32:46;;;;;;;24.13;13.40;;;1.50;93.30;;;;;;5126648;27;37725;-59
2021/12/27 07:35:16;;;;;;;26.75;15.23;;;1.50;93.40;;;;;;5127607;27;37786;-59
2021/12/27 07:37:43;;;;;;;25.73;14.85;;;1.50;93.50;;;;;;5127914;27;37409;-59
2021/12/27 07:40:13;;;;;;;27.77;14.55;;;1.50;93.40;;;;;;5127473;27;36613;-59
2021/12/27 07:42:42;;;;;;;27.60;16.35;;;1.50;93.40;;;;;;5127000;27;37574;-59
2021/12/27 07:45:09;;;;;;;29.17;15.40;;;1.50;93.60;;;;;;5127729;27;37820;-59
2021/12/27 07:47:37;;;;;;;27.60;15.48;;;1.50;93.60;;;;;;5127458;27;37430;-59
2021/12/27 07:50:05;;;;;;;28.52;14.40;;;1.50;93.60;;;;;;5127565;27;35505;-59
2021/12/27 07:52:33;;;;;;;27.40;15.18;;;1.50;93.80;;;;;;5127871;27;36311;-59
2021/12/27 07:55:00;;;;;;;27.67;14.77;;;1.50;93.90;;;;;;5126539;27;40389;-59
2021/12/27 07:57:28;;;;;;;29.23;15.20;;;1.50;93.90;;;;;;5126865;27;37067;-59
2021/12/27 07:59:56;;;;;;;27.42;15.95;;;1.50;93.80;;;;;;5127478;27;35404;-59
2021/12/27 08:02:24;;;;;;;29.50;15.63;;;1.60;93.80;;;;;;5127556;27;38285;-59
2021/12/27 08:04:51;;;;;;;27.73;15.93;;;1.60;93.80;;;;;;5126874;27;40307;-59
2021/12/27 08:07:18;;;;;;;28.20;14.50;;;1.60;93.80;;;;;;5128031;27;37378;-59
2021/12/27 08:09:46;;;;;;;30.90;15.98;;;1.60;94.00;;;;;;5126774;27;35378;-59
2021/12/27 08:12:14;;;;;;;26.13;15.07;;;1.60;94.00;;;;;;5126923;27;38081;-59
2021/12/27 08:14:41;;;;;;;29.13;15.85;;;1.60;94.20;;;;;;5127494;27;38083;-59
2021/12/27 08:17:10;;;;;;;32.40;15.93;;;1.50;94.20;;;;;;5126884;27;37661;-59
2021/12/27 08:19:37;;;;;;;34.03;16.58;;;1.50;94.20;;;;;;5127458;27;36727;-59
2021/12/27 08:22:05;;;;;;;29.48;17.02;;;1.60;94.30;;;;;;5130911;27;38755;-59
2021/12/27 08:24:32;;;;;;;30.13;15.55;;;1.60;94.30;;;;;;5129617;27;37950;-59
2021/12/27 08:27:02;;;;;;;28.85;15.25;;;1.60;94.40;;;;;;5131719;27;37695;-59
2021/12/27 08:29:30;;;;;;;27.90;15.48;;;1.60;94.30;;;;;;5130734;27;36742;-59
2021/12/27 08:31:57;;;;;;;30.75;16.00;;;1.50;94.50;;;;;;5130419;27;37644;-58
2021/12/27 08:34:27;;;;;;;29.77;15.52;;;1.50;94.50;;;;;;5130446;27;36510;-58
2021/12/27 08:36:55;;;;;;;32.08;16.92;;;1.50;94.40;;;;;;5130314;27;37936;-58
2021/12/27 08:39:22;;;;;;;31.58;16.33;;;1.60;94.40;;;;;;5130180;27;36559;-59
2021/12/27 08:41:50;;;;;;;27.70;15.43;;;1.50;94.50;;;;;;5130119;27;37922;-58
2021/12/27 08:44:17;;;;;;;34.60;19.15;;;1.60;94.70;;;;;;5130540;27;37811;-58
2021/12/27 08:46:44;;;;;;;31.83;16.13;;;1.60;94.60;;;;;;5130014;27;38547;-59
2021/12/27 08:49:12;;;;;;;35.72;18.27;;;1.70;94.50;;;;;;5130480;27;36630;-59
2021/12/27 08:51:41;;;;;;;32.03;16.85;;;1.70;94.60;;;;;;5129429;27;38863;-59
2021/12/27 08:54:09;;;;;;;34.35;17.42;;;1.70;94.80;;;;;;5129901;27;38722;-59
2021/12/27 08:56:38;;;;;;;35.05;17.40;;;1.70;94.70;;;;;;5129293;27;37639;-59
2021/12/27 08:59:06;;;;;;;32.38;17.25;;;1.80;94.70;;;;;;5127411;27;36915;-60
2021/12/27 09:01:33;;;;;;;36.45;17.77;;;1.80;94.90;;;;;;5121614;27;37047;-60
2021/12/27 09:04:01;;;;;;;40.97;19.15;;;1.80;94.90;;;;;;5124378;27;37910;-60
2021/12/27 09:06:28;;;;;;;38.17;18.55;;;1.90;95.00;;;;;;5124040;27;37409;-60
2021/12/27 09:08:57;;;;;;;38.00;17.42;;;1.80;95.00;;;;;;5124163;27;37136;-59
2021/12/27 09:11:24;;;;;;;45.15;20.02;;;1.80;95.20;;;;;;5123787;27;37661;-60
2021/12/27 09:13:52;;;;;;;40.08;18.83;;;1.80;95.20;;;;;;5124190;27;37784;-60
2021/12/27 09:16:19;;;;;;;40.63;18.63;;;1.90;95.30;;;;;;5124776;27;38333;-60
2021/12/27 09:18:47;;;;;;;37.25;17.58;;;1.90;95.20;;;;;;5124074;27;36690;-60
2021/12/27 09:21:14;;;;;;;46.50;19.65;;;1.90;95.20;;;;;;5123722;27;37426;-60
2021/12/27 09:23:42;;;;;;;48.50;20.63;;;2.00;95.20;;;;;;5124484;27;38629;-60
2021/12/27 09:26:10;;;;;;;41.83;18.45;;;1.90;95.40;;;;;;5123922;27;37952;-60
2021/12/27 09:28:38;;;;;;;38.70;18.00;;;1.90;95.40;;;;;;5123262;27;36927;-60
2021/12/27 09:31:05;;;;;;;41.28;19.83;;;1.90;95.50;;;;;;5122252;27;37511;-60
2021/12/27 09:33:32;;;;;;;43.88;18.73;;;2.00;95.30;;;;;;5123747;27;37655;-60
2021/12/27 09:36:00;;;;;;;41.83;18.85;;;2.00;95.60;;;;;;5122428;27;38127;-60
2021/12/27 09:38:27;;;;;;;41.17;18.73;;;2.00;95.50;;;;;;5121836;27;38041;-60
2021/12/27 09:40:55;;;;;;;42.10;17.50;;;2.00;95.40;;;;;;5121584;27;37087;-60
2021/12/27 09:43:26;;;;;;;43.15;18.90;;;2.00;95.50;;;;;;5122160;27;37738;-60
2021/12/27 09:45:54;;;;;;;39.30;19.30;;;2.00;95.60;;;;;;5122432;27;37591;-60
2021/12/27 09:48:21;;;;;;;48.10;19.38;;;2.00;95.60;;;;;;5121607;27;37925;-60
2021/12/27 09:50:51;;;;;;;43.13;19.38;;;2.00;95.70;;;;;;5121747;27;38086;-60
2021/12/27 09:53:18;;;;;;;39.53;19.40;;;2.00;95.60;;;;;;5122364;27;37661;-60
2021/12/27 09:55:46;;;;;;;38.28;20.20;;;2.10;95.80;;;;;;5122944;27;37083;-60
2021/12/27 09:58:13;;;;;;;35.17;19.35;;;2.00;95.70;;;;;;5122224;27;36577;-60
2021/12/27 10:00:42;;;;;;;36.65;17.42;;;2.10;95.80;;;;;;5123478;27;36367;-59
2021/12/27 10:03:10;;;;;;;37.40;18.45;;;2.10;95.70;;;;;;5123448;27;38053;-59
2021/12/27 10:05:39;;;;;;;35.95;16.95;;;2.10;95.70;;;;;;5124107;27;37213;-59
2021/12/27 10:08:06;;;;;;;38.22;17.60;;;2.10;95.90;;;;;;5121808;27;37455;-59
2021/12/27 10:10:35;;;;;;;36.67;17.95;;;2.10;95.80;;;;;;5121823;27;37015;-59
2021/12/27 10:13:07;;;;;;;38.63;19.05;;;2.10;95.80;;;;;;5124147;27;36431;-59
2021/12/27 10:15:38;;;;;;;37.25;17.50;;;2.20;95.90;;;;;;5120918;27;38529;-59
2021/12/27 10:18:11;;;;;;;38.45;18.75;;;2.20;95.90;;;;;;5122730;27;35127;-59
2021/12/27 10:20:39;;;;;;;39.60;18.35;;;2.20;96.10;;;;;;5123558;27;37359;-60
2021/12/27 10:23:06;;;;;;;36.13;16.63;;;2.20;96.10;;;;;;5123028;27;37461;-60
2021/12/27 10:25:34;;;;;;;41.17;19.48;;;2.20;96.00;;;;;;5122943;27;35999;-60
2021/12/27 10:28:03;;;;;;;33.20;16.63;;;2.20;96.20;;;;;;5121040;27;38007;-60
2021/12/27 10:30:32;;;;;;;29.00;16.38;;;2.30;96.10;;;;;;5121832;27;39190;-60
2021/12/27 10:33:07;;;;;;;37.72;16.42;;;2.30;96.20;;;;;;5123339;27;36100;-60
2021/12/27 10:35:37;;;;;;;40.65;18.55;;;2.30;96.20;;;;;;5123209;27;37119;-60
2021/12/27 10:38:20;;;;;;;42.42;18.35;;;2.30;96.20;;;;;;5119091;27;36803;-60
2021/12/27 10:40:52;;;;;;;40.90;16.90;;;2.30;96.20;;;;;;5116930;27;37750;-60
2021/12/27 10:43:33;;;;;;;46.17;19.73;;;2.40;96.30;;;;;;5117473;27;37828;-59
2021/12/27 10:46:02;;;;;;;42.85;17.38;;;2.40;96.20;;;;;;5117335;27;37120;-59
2021/12/27 10:48:33;;;;;;;44.00;18.23;;;2.40;96.20;;;;;;5117320;27;37044;-60
2021/12/27 10:51:02;;;;;;;47.42;18.40;;;2.40;96.50;;;;;;5117598;27;37056;-60
2021/12/27 10:53:46;;;;;;;53.25;19.30;;;2.40;96.30;;;;;;5118231;27;36470;-60
2021/12/27 10:56:14;;;;;;;54.03;19.67;;;2.50;96.60;;;;;;5118176;27;37290;-59
2021/12/27 10:58:47;;;;;;;51.70;18.88;;;2.50;96.60;;;;;;5118492;27;35532;-59
2021/12/27 11:01:18;;;;;;;60.67;21.15;;;2.50;96.40;;;;;;5118225;27;39971;-60
2021/12/27 11:03:47;;;;;;;54.90;20.48;;;2.50;96.70;;;;;;5118056;27;37902;-59
2021/12/27 11:06:19;;;;;;;48.42;19.55;;;2.60;96.60;;;;;;5118258;27;38956;-59
2021/12/27 11:08:47;;;;;;;42.63;19.80;;;2.60;96.60;;;;;;5118422;27;36879;-59
2021/12/27 11:11:15;;;;;;;58.78;21.77;;;2.60;96.90;;;;;;5117931;27;38262;-59
2021/12/27 11:13:44;;;;;;;50.35;19.92;;;2.60;96.60;;;;;;5116224;27;38673;-59
2021/12/27 11:16:12;;;;;;;44.72;18.33;;;2.70;96.60;;;;;;5119279;27;37695;-59
2021/12/27 11:18:39;;;;;;;53.95;19.45;;;2.60;96.60;;;;;;5117321;27;35603;-59
2021/12/27 11:21:12;;;;;;;45.97;19.40;;;2.70;96.70;;;;;;5116855;27;37786;-59
2021/12/27 11:23:42;;;;;;;50.03;20.43;;;2.70;96.60;;;;;;5117374;27;37602;-59
2021/12/27 11:26:13;;;;;;;49.33;19.25;;;2.70;96.80;;;;;;5118777;27;36856;-59
2021/12/27 11:28:42;;;;;;;62.58;22.15;;;2.70;96.80;;;;;;5118076;27;37688;-59
2021/12/27 11:31:16;;;;;;;61.05;19.75;;;2.70;96.60;;;;;;5119339;27;37625;-59
2021/12/27 11:33:58;;;;;;;53.00;19.42;;;2.80;96.70;;;;;;5118535;27;38832;-59
2021/12/27 11:36:28;;;;;;;55.55;19.88;;;2.80;96.90;;;;;;5118889;27;36181;-60
2021/12/27 11:38:57;;;;;;;62.53;22.83;;;2.80;96.90;;;;;;5119261;27;36780;-60
2021/12/27 11:41:32;;;;;;;57.10;20.52;;;2.80;96.90;;;;;;5117594;27;36801;-59
2021/12/27 11:44:01;;;;;;;59.28;20.63;;;2.80;97.00;;;;;;5119531;27;38993;-59
2021/12/27 11:46:32;;;;;;;61.60;21.70;;;2.80;97.10;;;;;;5117543;27;36194;-59
2021/12/27 11:49:01;;;;;;;58.60;22.33;;;2.80;97.00;;;;;;5119261;27;37886;-60
2021/12/27 11:51:34;;;;;;;79.00;20.75;;;2.80;97.10;;;;;;5119497;27;37065;-59
2021/12/27 11:54:05;;;;;;;51.63;20.48;;;2.80;97.20;;;;;;5118033;27;37644;-59
2021/12/27 11:56:44;;;;;;;73.70;23.80;;;2.80;97.40;;;;;;5116233;27;36162;-59
2021/12/27 11:59:41;;;;;;;68.95;22.05;;;2.80;97.40;;;;;;5118112;27;39248;-59
2021/12/27 12:02:26;;;;;;;64.70;21.38;;;2.80;97.60;;;;;;5105136;27;38462;-59
2021/12/27 12:04:56;;;;;;;75.80;22.35;;;2.80;97.40;;;;;;5117957;27;37887;-59
2021/12/27 12:07:54;;;;;;;69.45;21.20;;;2.80;97.30;;;;;;5117266;27;36179;-58
2021/12/27 12:10:23;;;;;;;65.93;21.83;;;2.90;97.50;;;;;;5112539;27;36534;-59
2021/12/27 12:13:25;;;;;;;77.30;22.33;;;2.80;97.40;;;;;;5115928;27;36310;-59
2021/12/27 12:16:15;;;;;;;61.60;19.95;;;2.90;97.70;;;;;;5046126;28;38784;-59
2021/12/27 12:18:44;;;;;;;68.35;20.88;;;2.90;97.80;;;;;;5107231;27;38607;-59
2021/12/27 12:21:38;;;;;;;74.38;21.00;;;3.00;97.60;;;;;;5116630;27;39156;-59
2021/12/27 12:24:16;;;;;;;66.32;21.08;;;3.00;97.70;;;;;;5117198;27;40097;-59
2021/12/27 12:26:54;;;;;;;51.85;21.27;;;3.00;97.50;;;;;;5116456;27;37694;-59
2021/12/27 12:29:22;;;;;;;60.65;20.80;;;3.00;97.60;;;;;;5119435;27;36098;-59
2021/12/27 12:31:55;;;;;;;56.75;19.15;;;3.10;97.50;;;;;;5119588;27;35761;-59
2021/12/27 12:34:22;;;;;;;57.63;19.67;;;3.00;97.40;;;;;;5120017;27;37707;-59
2021/12/27 12:36:52;;;;;;;62.70;22.10;;;3.10;97.60;;;;;;5116144;27;37258;-59
2021/12/27 12:39:20;;;;;;;55.78;20.42;;;3.10;97.40;;;;;;5117586;27;38052;-59
2021/12/27 12:41:49;;;;;;;56.33;21.40;;;3.10;97.40;;;;;;5120702;27;38102;-59
2021/12/27 12:44:18;;;;;;;67.95;21.42;;;3.10;97.40;;;;;;5121353;27;37512;-59
2021/12/27 12:46:49;;;;;;;65.53;21.98;;;3.10;97.50;;;;;;5122071;27;37231;-59
2021/12/27 12:49:18;;;;;;;71.32;21.85;;;3.10;97.60;;;;;;5120204;27;38060;-59